AirNav  
 
 1080 users online  

66TS KHOU-TV Heliport
Houston, Texas, USA

GOING TO HOUSTON?


FAA INFORMATION EFFECTIVE 01 FEBRUARY 2018

Location

FAA Identifier: 66TS
Lat/Long: 29-45-37.8210N / 095-23-14.7790W
29-45.630350N / 095-23.246317W
29.7605058 / -95.3874386
(estimated)
Elevation: 70 ft. / 21 m (estimated)
Variation: 06E (1985)
From city: 1 mile W of HOUSTON, TX
Time zone: UTC -6 (UTC -5 during Daylight Saving Time)
Zip code: 77019

Heliport Operations

Heliport use: Private use. Permission required prior to landing
Activation date: 02/1987
Control tower: no
ARTCC: HOUSTON CENTER
FSS: MONTGOMERY COUNTY FLIGHT SERVICE STATION
FOR FP FILING CALL CXO FSS 1-800-833-5602.
Attendance: CONTINUOUS
Wind indicator: yes
Segmented circle: no
Lights: ACTVT PERIMETER LGTS - 122.85.

Heliport Communications

WX ASOS at HOU (9 nm SE): PHONE 713-847-1462
WX ASOS at IAH (14 nm N): PHONE 281-443-6397
WX AWOS-3 at AXH (16 nm S): 123.625 (281-431-6572)
WX ASOS at LVJ (16 nm SE): 118.525 (281-992-1853)
WX ASOS at SGR (16 nm SW): 118.125 (281-242-7605)

Nearby radio navigation aids

VOR radial/distance  VOR name  Freq  Var
HUBr312/8.5HOBBY VOR/DME117.1005E
IAHr185/12.0HUMBLE VORTAC116.6005E
MHFr284/35.8TRINITY VOR/DME113.6007E

 
NDB name  Hdg/Dist  Freq  Var  ID
NIXIN208/16.632605EBVP -... ...- .--.
SANJAC283/17.434705EJPA .--- .--. .-

Heliport Services

Runway Information

Helipad H1

Dimensions: 50 x 50 ft. / 15 x 15 m
Surface: concrete
ROOFTOP.
Runway edge lights: PAD HAS PERIMETER LIGHTS/FLOODLIGHTS.
Operational restrictions: INGRESS/EGRESS 270 DEGREES AND 090 DEGREES.
Traffic pattern: leftleft

Heliport Ownership and Management from official FAA records

Ownership: Privately-owned
Owner: BELO/GULF TV BROADCASTING
1945 ALLEN PARKWAY
HOUSTON, TX 77109
Phone 713-526-1111
Manager: FRANK DAVIS
1945 ALLEN PARKWAY
HOUSTON, TX 77109
Phone 713-526-1111

Heliport Operational Statistics

Aircraft based on the field: 1
Helicopters: 1
    

Additional Remarks

A52-H1 40' FLAG POLES 100'W; 170' BLDG 150' EAST; 170' BLDG/TOWER 150' SOUTH.

Instrument Procedures

There are no published instrument procedures at 66TS.

Some nearby airports with instrument procedures:

KHOU - William P Hobby Airport (9 nm SE)
KIAH - George Bush Intercontinental/Houston Airport (14 nm N)
KEFD - Ellington Airport (15 nm SE)
KIWS - West Houston Airport (15 nm W)
KAXH - Houston Southwest Airport (16 nm S)
KLVJ - Pearland Regional Airport (16 nm SE)
KSGR - Sugar Land Regional Airport (16 nm SW)
T41 - La Porte Municipal Airport (18 nm E)
 
Loc | Ops | Rwys | IFR | FBO | Links
Com | Nav | Svcs | Stats | Notes

AirNav Hotels Sweepstakes
 
Area around 66TS (KHOU-TV Heliport)
 
Road maps at: MapQuest Bing Google
 
Aerial photo
No photo
 
Sectional chart

 
Airport distance calculator
Flying to KHOU-TV Heliport? Find the distance to fly.

From to 66TS

Sunrise and sunset
Times for 24-Feb-2018
 Local
(UTC-6)
 Zulu
(UTC)
Morning civil twilight06:2912:29
Sunrise06:5412:54
Sunset18:1600:16
Evening civil twilight18:4000:40

Current date and time
Zulu (UTC)  24-Feb-2018 19:01:58
Local (UTC-6)  24-Feb-2018 13:01:58
 
METAR
KHOU 
9nm SE 
241853Z 17019G24KT 10SM SCT032 SCT038 BKN048 BKN250 27/20 A2991 RMK AO2 PK WND 20032/1827 SLP133 T02670200 $
KIAH 
14nm N 
241853Z 17017G24KT 150V210 10SM SCT033 BKN048 BKN070 BKN180 27/19 A2991 RMK AO2 PK WND 20026/1838 SLP126 T02670189 $
KEFD 
15nm SE 
241850Z 17019G26KT 10SM BKN025 BKN050 BKN250 26/20 A2994
KAXH 
16nm S 
241855Z AUTO 19016G25KT 10SM SCT034 BKN047 OVC055 26/19 A2993 RMK AO2 T02630191
KSGR 
16nm SW 
241853Z 19017G29KT 10SM SCT035 BKN050 27/19 A2990 RMK AO2 PK WND 19031/1829 SLP127 T02670189
KLVJ 
16nm SE 
241853Z AUTO 18018G27KT 10SM FEW024 BKN035 OVC050 26/20 A2993 RMK AO2 PK WND 19028/1819 SLP135 T02560200
TAF
KHOU 
9nm SE 
241740Z 2418/2518 17014G24KT P6SM VCSH SCT025 BKN035 TEMPO 2418/2420 BKN025 FM242300 19010KT P6SM VCSH BKN030 FM250300 21007KT P6SM VCSH OVC015 FM250600 25005KT 6SM -SHRA BR OVC008 FM251300 04006KT 6SM -SHRA BR OVC004 FM251600 06008KT 5SM -SHRA BR OVC008
KIAH 
14nm N 
241740Z 2418/2524 17014G24KT P6SM VCSH SCT025 BKN045 TEMPO 2418/2420 BKN025 FM242300 19010KT P6SM VCSH BKN030 FM250300 21007KT P6SM VCSH OVC015 FM250600 25005KT 6SM -SHRA BR OVC008 FM251200 04006KT 6SM -SHRA BR OVC007 FM251600 08008KT 5SM -SHRA BR OVC010
KEFD 
15nm SE 
241730Z 2417/2518 16009KT 9999 BKN010 QNH2993INS BECMG 2417/2418 18012G18KT 9000 -SHRA BKN020 QNH2987INS BECMG 2423/2424 20009KT 8000 -SHRA BKN010 QNH2990INS TEMPO 2503/2508 25012G20KT 3200 TSRA BKN007 OVC030CB BECMG 2508/2509 25009KT 6000 -SHRA BR OVC005 QNH2994INS BECMG 2514/2515 33009KT 8000 -SHRA BKN007 OVC020 QNH2998INS TX28/2420Z TN20/2512Z
KSGR 
16nm SW 
241740Z 2418/2518 17016G26KT P6SM VCSH SCT025 BKN035 TEMPO 2418/2420 BKN025 FM242300 19010KT P6SM VCSH BKN030 FM250300 21007KT P6SM VCSH OVC015 FM250500 25005KT 6SM -SHRA BR OVC008 FM251200 04006KT 6SM -SHRA BR OVC004 FM251500 06008KT 5SM -SHRA BR OVC008
NOTAMs
Click for the latest NOTAMs
NOTAMs are issued by the DoD/FAA and will open in a separate window not controlled by AirNav.

 

 
 

Would you like to see your business listed on this page?

 If your business provides an interesting product or service to pilots, flight crews, aircraft, or users of the KHOU-TV Heliport, you should consider listing it here.  To start the listing process, click on the button below
 
Add a business
 

Other Pages about KHOU-TV Heliport

Update a link
 
Copyright © AirNav, LLC. All rights reserved. Privacy Policy  Contact